UAV - Meteorology

To τεστ αποτελείται από 10 ερωτήσεις. Εχετε 10' για να το ολοκληρώσετε.
Επιτυχές αποτέλεσμα θεωρείται η βαθμολογία άνω του 80%

Δεν απαιτείται σύνδεση ή να βάλετε τα προσωπικά σας στοιχεία.
Εαν θέλετε, εφόσον έχετε επιτυχές αποτέλεσμα να λάβετε
ένα πιστοποιητικό (Certificate of Accomplishment),
μην ξεχάσετε το όνομά σας με λατινικούς χαρακτήρες στο τέλος του τεστ,
όπως επιθυμείτε αυτό να αναγράφεται στο πιστοποιητικό.

Air Traffic Rules | Meteorology | Civil Aviation Legislation | Navigation | Aerodynamics | Radio Communications | Technical Knowledge | Human Factors
Τι στοιχεία εξάγουμε από το ακόλουθο METAR: LGSK 131050Z 04007KT 9000 SCT020 BKN030 OVC080 12/08 Q1021
Τι στοιχεία εξάγουμε από το ακόλουθο METAR : LGSK 131050Z 04007KT 9000 SCT020 BKN030 OVC080 12/08 Q1021
Να χαρακτηριστούν ως ‘ΣΩΣΤΗ’ ή ‘ΛΑΘΟΣ’ οι παρακάτω προτάσεις.
Πρόταση Ι: «Ο όρος +TSRA σημαίνει καταιγίδα με ισχυρή βροχή».
Πρόταση ΙΙ: «Εάν ακουστεί βροντή σε έναν τόπο, ο παρατηρητής καταγράφει καταιγίδα, χωρίς να είναι απαραίτητο να βρέξει».
EGPH 050500Z 0506/0606 23017G30KT 9999 BKN020 TEMPO 0506/0512 5000 RA BKN012
BECMG 0515/0518 27020G30KT
TEMPO 0600/0606 8000 –SHRA
Nα χαρακτηριστούν ως ‘ΣΩΣΤΗ’ ή ‘ΛΑΘΟΣ’ οι παρακάτω προτάσεις.
Πρόταση Ι: «Το παραπάνω σήμα είναι METAR».
Πρόταση ΙΙ: «Στο παραπάνω σήμα διατυπώνεται ότι, σήμερα, από 06:00 έως 12:00, παροδικά, θα βρέχει»
Νέφη ονομάζονται το ορατό σύνολο των μικροσκοπικών σταγονιδίων νερού ή σωματιδίων πάγου, που αιωρούνται στην ατμόσφαιρα. Νέφη, ομίχλη ή δρόσος σχηματίζεται πάντα όταν
Τι στοιχεία εξάγουμε από το ακόλουθο METAR: LGAV 251020Z 03026KT CAVOK 30/14 Q1012 NOSIG
Σε μία καταιγίδα ποιο στάδιο χαρακτηρίζεται κυρίως από καθοδικά;
Τι στοιχεία εξάγουμε από το ακόλουθο METAR: LGSK 131050Z 04007KT 9000 SCT020 BKN030 OVC080 12/08 Q1021.
Στην επιστήμη της μετεωρολογίας τα νέφη ταξινομούνται με δύο βασικά κριτήρια:
Θερμό μέτωπο έχουμε όταν ο αέρας στη ψυχρή πλευρά του μετώπου υποχωρεί δίνοντας τη θέση του στο θερμότερο αέρα. Στους μετεωρολογικούς χάρτες τα θερμά μέτωπα απεικονίζονται με...

μπορείτε να γυρίσετε πίσω για ένα τελικό έλεγχο ή να πατήσετε ΒΑΘΜΟΛΟΓΙΑ για αποτελέσματα.



Ονοματεπώνυμο (στην περίπτωση μονο που θέλετε πιστοποιητικό)